»·PEaware :: N653AW KSAN-KPHX

N653AW :: KSAN-KPHX

FLIGHT INFORMATION

Flight Status: Arrived
Operator: Privately registered:
United States
More flights under this callsign
Pilot: Sergei F. (8485)
Aircraft: AIRBUS A320
(A320)
More flights by this aircraft type
Origin: KSAN San Diego Intl-Lindbergh
United States
Destination: KPHX Phoenix Sky Harbor Intl
United States
More flights between these airports :: More routes between these airports
Route: +ZZOOO2 IPL J18 BZA HOGGZ HYDRR1
File this flight plan on PilotEdge
Remarks:
Altitude:
(Current/Filed)
27,000ft
Speed:
(Current/Filed)
400kts
Departed: 30-Dec-19 07:13 PM
Arrived: 30-Dec-19 08:02 PM
Distance/Time
Traveled:
264nm/0:49
Distance/Time
To Go:
Arrived

Flight Plot

Page will automatically refresh every two minutes.

Flight plan parsing failed; only flown route is shown


Map Options




Map Legend


Flown Route
Filed Route
Departure Airport
Arrival Airport
Navaid (VOR, NDB)
Fix

Horizontal Profiles

Position Reports

Time Latitude Longitude Heading Altitude Ground
Speed
30-Dec-19 18:10 32.734102 -117.201152 166 26ft 0kts
30-Dec-19 18:11 32.734102 -117.201152 166 26ft 0kts
30-Dec-19 18:11 32.734102 -117.201152 166 26ft 0kts
30-Dec-19 18:12 32.734102 -117.201152 166 26ft 0kts
30-Dec-19 18:14 32.734102 -117.201152 166 26ft 0kts
30-Dec-19 18:14 32.734102 -117.201152 166 26ft 0kts
30-Dec-19 18:15 32.734102 -117.201152 166 26ft 0kts
30-Dec-19 18:16 32.734102 -117.201152 166 26ft 0kts
30-Dec-19 18:18 32.734102 -117.201152 166 26ft 0kts
30-Dec-19 18:18 32.734102 -117.201152 166 26ft 0kts
30-Dec-19 18:19 32.734102 -117.201152 166 26ft 0kts
30-Dec-19 18:20 32.734102 -117.201152 166 26ft 0kts
30-Dec-19 18:21 32.734102 -117.201152 166 26ft 0kts
30-Dec-19 18:22 32.734423 -117.201177 188 26ft 2kts
30-Dec-19 18:23 32.734937 -117.200979 200 26ft 0kts
30-Dec-19 18:24 32.735322 -117.201178 105 26ft 1kts
30-Dec-19 18:25 32.735335 -117.201242 105 26ft 0kts
30-Dec-19 18:26 32.735335 -117.201242 105 26ft 0kts
30-Dec-19 18:27 32.735335 -117.201242 105 26ft 0kts
30-Dec-19 18:28 32.735335 -117.201242 105 26ft 0kts
30-Dec-19 18:29 32.735335 -117.201242 105 26ft 0kts
30-Dec-19 18:30 32.735335 -117.201242 105 26ft 0kts
30-Dec-19 18:31 32.735335 -117.201242 105 26ft 0kts
30-Dec-19 18:32 32.735335 -117.201242 105 26ft 0kts
30-Dec-19 18:33 32.735335 -117.201242 105 26ft 0kts
30-Dec-19 18:34 32.735335 -117.201242 105 26ft 0kts
30-Dec-19 18:35 32.735335 -117.201242 105 26ft 0kts
30-Dec-19 18:36 32.735335 -117.201242 105 26ft 0kts
30-Dec-19 18:37 32.735335 -117.201242 105 26ft 0kts
30-Dec-19 18:38 32.735335 -117.201242 105 26ft 0kts
30-Dec-19 18:39 32.735335 -117.201242 105 26ft 0kts
30-Dec-19 18:40 32.735335 -117.201242 105 26ft 0kts
30-Dec-19 18:41 32.735335 -117.201242 105 26ft 0kts
30-Dec-19 18:42 32.735335 -117.201242 105 26ft 0kts
30-Dec-19 18:43 32.735335 -117.201242 105 26ft 0kts
30-Dec-19 18:44 32.735335 -117.201242 105 26ft 0kts
30-Dec-19 18:45 32.735335 -117.201242 105 26ft 0kts
30-Dec-19 18:46 32.735335 -117.201242 105 26ft 0kts
30-Dec-19 18:47 32.735335 -117.201242 105 26ft 0kts
30-Dec-19 18:48 32.735335 -117.201242 105 26ft 0kts
30-Dec-19 18:49 32.735335 -117.201242 105 26ft 0kts
30-Dec-19 18:50 32.735335 -117.201242 105 26ft 0kts
30-Dec-19 18:51 32.735335 -117.201242 105 26ft 0kts
30-Dec-19 18:52 32.735335 -117.201242 105 26ft 0kts
30-Dec-19 18:53 32.735335 -117.201242 105 26ft 0kts
30-Dec-19 18:54 32.735335 -117.201242 105 26ft 0kts
30-Dec-19 18:55 32.735335 -117.201242 105 26ft 0kts
30-Dec-19 18:56 32.735335 -117.201242 105 26ft 0kts
30-Dec-19 18:57 32.735335 -117.201242 105 26ft 0kts
30-Dec-19 18:58 32.735335 -117.201242 105 26ft 0kts
30-Dec-19 18:59 32.735335 -117.201242 105 26ft 0kts
30-Dec-19 19:00 32.735335 -117.201242 105 26ft 0kts
30-Dec-19 19:01 32.735335 -117.201242 105 26ft 0kts
30-Dec-19 19:02 32.735335 -117.201242 105 26ft 0kts
30-Dec-19 19:03 32.735335 -117.201242 105 26ft 0kts
30-Dec-19 19:04 32.735335 -117.201242 105 26ft 0kts
30-Dec-19 19:05 32.734928 -117.199586 106 26ft 14kts
30-Dec-19 19:06 32.733724 -117.194603 105 26ft 18kts
30-Dec-19 19:07 32.732119 -117.187996 106 26ft 23kts
30-Dec-19 19:08 32.730113 -117.179734 107 26ft 27kts
30-Dec-19 19:09 32.729489 -117.176850 77 26ft 2kts
30-Dec-19 19:10 32.729627 -117.176292 73 26ft 8kts
30-Dec-19 19:11 32.730286 -117.176100 283 26ft 6kts
30-Dec-19 19:12 32.738433 -117.210055 287 1333ft 173kts
30-Dec-19 19:13 32.754383 -117.275829 289 5307ft 189kts
30-Dec-19 19:14 32.717256 -117.308666 145 8741ft 203kts
30-Dec-19 19:15 32.652890 -117.261604 143 11187ft 284kts
30-Dec-19 19:16 32.623962 -117.167699 95 12495ft 352kts
30-Dec-19 19:17 32.613762 -117.049075 95 14603ft 376kts
30-Dec-19 19:18 32.603272 -116.923883 91 16661ft 393kts
30-Dec-19 19:19 32.626067 -116.793717 79 18559ft 410kts
30-Dec-19 19:20 32.641453 -116.658588 86 20259ft 421kts
30-Dec-19 19:21 32.655036 -116.519008 86 21800ft 433kts
30-Dec-19 19:22 32.668841 -116.375430 86 23003ft 440kts
30-Dec-19 19:23 32.682466 -116.232108 87 23075ft 440kts
30-Dec-19 19:24 32.695755 -116.090387 87 23105ft 440kts
30-Dec-19 19:25 32.709281 -115.944559 87 24216ft 450kts
30-Dec-19 19:26 32.722947 -115.795875 87 25399ft 461kts
30-Dec-19 19:27 32.736850 -115.642579 87 26479ft 471kts
30-Dec-19 19:28 32.749399 -115.487945 91 27082ft 469kts
30-Dec-19 19:29 32.753094 -115.333552 92 27082ft 470kts
30-Dec-19 19:30 32.756637 -115.178929 92 27079ft 469kts
30-Dec-19 19:31 32.759981 -115.024233 94 27063ft 471kts
30-Dec-19 19:32 32.763145 -114.868453 95 27066ft 474kts
30-Dec-19 19:33 32.766156 -114.711089 95 27080ft 475kts
30-Dec-19 19:34 32.768849 -114.554843 95 27068ft 475kts
30-Dec-19 19:35 32.770978 -114.397592 95 27055ft 475kts
30-Dec-19 19:36 32.772931 -114.242632 95 26520ft 472kts
30-Dec-19 19:37 32.774801 -114.088266 94 25319ft 458kts
30-Dec-19 19:38 32.789634 -113.935909 88 25040ft 464kts
30-Dec-19 19:39 32.806025 -113.786196 88 25057ft 436kts
30-Dec-19 19:40 32.840867 -113.654947 54 24889ft 436kts
30-Dec-19 19:41 32.920295 -113.548749 53 23922ft 426kts
30-Dec-19 19:42 32.997826 -113.444324 52 22939ft 413kts
30-Dec-19 19:43 33.072076 -113.343944 52 21067ft 398kts
30-Dec-19 19:44 33.142874 -113.248214 52 19228ft 382kts
30-Dec-19 19:45 33.211246 -113.155495 52 17327ft 368kts
30-Dec-19 19:46 33.272238 -113.063241 77 15811ft 334kts
30-Dec-19 19:47 33.277188 -112.956748 90 14072ft 318kts
30-Dec-19 19:48 33.279758 -112.852617 90 12470ft 305kts
30-Dec-19 19:49 33.303625 -112.759746 67 11188ft 293kts
30-Dec-19 19:50 33.335522 -112.674910 66 10295ft 269kts
30-Dec-19 19:51 33.366164 -112.594792 66 9070ft 264kts
30-Dec-19 19:52 33.395949 -112.516660 65 8221ft 244kts
30-Dec-19 19:53 33.421874 -112.444565 67 7331ft 232kts
30-Dec-19 19:54 33.428638 -112.369600 89 6285ft 228kts
30-Dec-19 19:55 33.428746 -112.295679 89 5233ft 222kts
30-Dec-19 19:56 33.435609 -112.224701 76 4536ft 199kts
30-Dec-19 19:57 33.441187 -112.164340 90 3663ft 175kts
30-Dec-19 19:58 33.441019 -112.113924 89 2548ft 132kts
30-Dec-19 19:59 33.440948 -112.070416 89 1860ft 131kts
30-Dec-19 20:00 33.440877 -112.027839 89 1171ft 129kts
30-Dec-19 20:01 33.440487 -112.007480 139 1131ft 4kts
30-Dec-19 20:02 33.439747 -112.005933 90 1131ft 8kts
30-Dec-19 20:03 33.438073 -112.004691 179 1130ft 13kts
30-Dec-19 20:04 33.434029 -112.004688 179 1128ft 12kts
30-Dec-19 20:05 33.432861 -112.002635 89 1127ft 12kts
30-Dec-19 20:06 33.433501 -112.000380 359 1128ft 6kts
30-Dec-19 20:07 33.433903 -111.999869 76 1128ft 0kts
30-Dec-19 20:09 33.433903 -111.999870 76 1128ft 0kts
30-Dec-19 20:10 33.433902 -111.999870 76 1128ft 0kts
30-Dec-19 20:11 33.433902 -111.999870 76 1128ft 0kts

Navigation Log

Ident Type
Flight plan parsing failed, navigation log unavailable